Logansport, Indiana
Current Conditions -  °F | °C
As of 5:15 PM on Sunday 23 Nov 2014 (Local Time) from KGGP Reporting Station
Heavy Rain Heavy Rain  
Wind Chill: 50°   Ceiling: 700
Heat Index: 50°   Visibility: 4mi
Dew Point: 50°   Wind: 9mph
Humidity: 100%   Direction: 130°SE
Pressure: 29.48"   Gusts: NA
Location:  40.75°N, 86.36°W
Report Text: KGGP 232215Z AUTO 13008KT 4SM +RA OVC007 10/10 A2948 RMK AO2 P0008
Loading
Personal Weather Stations






























Interactive Weather Map New forecast layout! Learn more

10-Day Weather Forecast

Advertisements
Track Severe Weather on mobile